Mae Purissima — CUCV-5 — position and weather

sailwx.info

Track history (hours):
 
Tides and Currents Weather Stations Pressure Air Temp Water Temp Dewpoint Dewpoint Depression Visibility Wind Speed Wind Dir Waves Ship Positions

Mae Purissima

Last reported at 2018-Jun-20 07:58 UTC. Time now 2018-Jun-20 09:17 UTC.
Position N 39°15' W 009°27'.

Length 18 m.

Type: Fishing. MMSI: 263414850.

Date/timePositionNaut miles runAvg speedWind from/ knotsBaromVisibWave heightAir tempDewpointWater temp
2018-Jun-20 07:58N 39°15' W 009°27'1 0.4
2018-Jun-20 06:20N 39°16' W 009°27'0 0.7
2018-Jun-20 05:41N 39°15' W 009°27'2 0.1
2018-Jun-19 14:05N 39°13' W 009°28'0 1.6
2018-Jun-19 13:53N 39°14' W 009°28'1 1.7
2018-Jun-19 13:25N 39°15' W 009°28'1 1.8
2018-Jun-19 13:00N 39°15' W 009°28'2 1.0
2018-Jun-19 10:37N 39°18' W 009°28'0 1.7
2018-Jun-19 10:28N 39°18' W 009°29'0 0.8
2018-Jun-19 10:00N 39°18' W 009°29'0 0.5
2018-Jun-19 09:23N 39°18' W 009°29'1 1.4
2018-Jun-19 08:49N 39°18' W 009°29'0 1.2
2018-Jun-19 08:28N 39°18' W 009°29'0 0.7
2018-Jun-19 07:53N 39°17' W 009°29'1 1.2
2018-Jun-19 07:27N 39°17' W 009°28'0 0.6
2018-Jun-19 06:59N 39°17' W 009°28'1 1.4
2018-Jun-19 06:29N 39°17' W 009°29'1 1.5
2018-Jun-19 06:00N 39°17' W 009°28'0 0.5
2018-Jun-19 05:30N 39°17' W 009°28'0 0.9
2018-Jun-19 04:58N 39°17' W 009°29'1 1.4
2018-Jun-19 04:30N 39°17' W 009°28'3 4.5
2018-Jun-19 03:46N 39°13' W 009°28'2 5.8
2018-Jun-19 03:30N 39°15' W 009°28'  
2018-Jun-15 10:11N 39°18' W 009°28'0 0.2
2018-Jun-15 09:11N 39°18' W 009°29'1 0.6
2018-Jun-15 08:08N 39°18' W 009°29'0 0.7
2018-Jun-15 07:58N 39°18' W 009°29'1 1.6
2018-Jun-15 07:30N 39°17' W 009°28'0 0.8
2018-Jun-15 06:59N 39°17' W 009°28'1 1.1
2018-Jun-15 06:25N 39°17' W 009°29'1 1.5
2018-Jun-15 06:00N 39°17' W 009°28'1 1.3
2018-Jun-15 05:28N 39°16' W 009°29'1 1.3
2018-Jun-15 04:59N 39°17' W 009°28'3 0.1
2018-Jun-13 12:30N 39°14' W 009°28'1 1.4
2018-Jun-13 11:59N 39°14' W 009°28'1 1.7
2018-Jun-13 11:30N 39°15' W 009°28'4 1.1
2018-Jun-13 07:55N 39°19' W 009°29'0 0.2
2018-Jun-13 06:14N 39°18' W 009°29'5 2.2
2018-Jun-13 03:55N 39°13' W 009°28'  
Track history (hours):
 
Tides and Currents Weather Stations Pressure Air Temp Water Temp Dewpoint Dewpoint Depression Visibility Wind Speed Wind Dir Waves Ship Positions

Mae Purissima

Last reported at 2018-Jun-20 07:58 UTC. Time now 2018-Jun-20 09:17 UTC.
Position N 39°15' W 009°27'.

Length 18 m.

Type: Fishing. MMSI: 263414850.

Date/timePositionNaut miles runAvg speedWind from/ knotsBaromVisibWave heightAir tempDewpointWater temp
2018-Jun-20 07:58N 39°15' W 009°27'1 0.4
2018-Jun-20 06:20N 39°16' W 009°27'0 0.7
2018-Jun-20 05:41N 39°15' W 009°27'2 0.1
2018-Jun-19 14:05N 39°13' W 009°28'0 1.6
2018-Jun-19 13:53N 39°14' W 009°28'1 1.7
2018-Jun-19 13:25N 39°15' W 009°28'1 1.8
2018-Jun-19 13:00N 39°15' W 009°28'2 1.0
2018-Jun-19 10:37N 39°18' W 009°28'0 1.7
2018-Jun-19 10:28N 39°18' W 009°29'0 0.8
2018-Jun-19 10:00N 39°18' W 009°29'0 0.5
2018-Jun-19 09:23N 39°18' W 009°29'1 1.4
2018-Jun-19 08:49N 39°18' W 009°29'0 1.2
2018-Jun-19 08:28N 39°18' W 009°29'0 0.7
2018-Jun-19 07:53N 39°17' W 009°29'1 1.2
2018-Jun-19 07:27N 39°17' W 009°28'0 0.6
2018-Jun-19 06:59N 39°17' W 009°28'1 1.4
2018-Jun-19 06:29N 39°17' W 009°29'1 1.5
2018-Jun-19 06:00N 39°17' W 009°28'0 0.5
2018-Jun-19 05:30N 39°17' W 009°28'0 0.9
2018-Jun-19 04:58N 39°17' W 009°29'1 1.4
2018-Jun-19 04:30N 39°17' W 009°28'3 4.5
2018-Jun-19 03:46N 39°13' W 009°28'2 5.8
2018-Jun-19 03:30N 39°15' W 009°28'  
2018-Jun-15 10:11N 39°18' W 009°28'0 0.2
2018-Jun-15 09:11N 39°18' W 009°29'1 0.6
2018-Jun-15 08:08N 39°18' W 009°29'0 0.7
2018-Jun-15 07:58N 39°18' W 009°29'1 1.6
2018-Jun-15 07:30N 39°17' W 009°28'0 0.8
2018-Jun-15 06:59N 39°17' W 009°28'1 1.1
2018-Jun-15 06:25N 39°17' W 009°29'1 1.5
2018-Jun-15 06:00N 39°17' W 009°28'1 1.3
2018-Jun-15 05:28N 39°16' W 009°29'1 1.3
2018-Jun-15 04:59N 39°17' W 009°28'3 0.1
2018-Jun-13 12:30N 39°14' W 009°28'1 1.4
2018-Jun-13 11:59N 39°14' W 009°28'1 1.7
2018-Jun-13 11:30N 39°15' W 009°28'4 1.1
2018-Jun-13 07:55N 39°19' W 009°29'0 0.2
2018-Jun-13 06:14N 39°18' W 009°29'5 2.2
2018-Jun-13 03:55N 39°13' W 009°28'  

Dump ship's entire track history